sensor_id;sensor_type;location;lat;lon;timestamp;temperature;humidity
4425;DHT22;2225;53.568;13.266;2023-06-26T00:01:36;24.40;85.00
4425;DHT22;2225;53.568;13.266;2023-06-26T00:04:03;24.40;85.00
4425;DHT22;2225;53.568;13.266;2023-06-26T00:06:30;24.40;85.30
4425;DHT22;2225;53.568;13.266;2023-06-26T00:08:57;24.50;85.30
4425;DHT22;2225;53.568;13.266;2023-06-26T00:11:25;24.40;85.10
4425;DHT22;2225;53.568;13.266;2023-06-26T00:13:54;24.40;85.20
4425;DHT22;2225;53.568;13.266;2023-06-26T00:16:20;24.40;85.30
4425;DHT22;2225;53.568;13.266;2023-06-26T00:18:47;24.40;85.30
4425;DHT22;2225;53.568;13.266;2023-06-26T00:21:14;24.50;85.30
4425;DHT22;2225;53.568;13.266;2023-06-26T00:23:41;24.40;85.40
4425;DHT22;2225;53.568;13.266;2023-06-26T00:26:08;24.40;85.50
4425;DHT22;2225;53.568;13.266;2023-06-26T00:28:36;24.40;85.60
4425;DHT22;2225;53.568;13.266;2023-06-26T00:31:04;24.40;85.40
4425;DHT22;2225;53.568;13.266;2023-06-26T00:33:31;24.40;85.30
4425;DHT22;2225;53.568;13.266;2023-06-26T00:35:59;24.40;85.30
4425;DHT22;2225;53.568;13.266;2023-06-26T00:38:26;24.40;85.10
4425;DHT22;2225;53.568;13.266;2023-06-26T00:40:53;24.40;85.10
4425;DHT22;2225;53.568;13.266;2023-06-26T00:43:22;24.40;85.00
4425;DHT22;2225;53.568;13.266;2023-06-26T00:45:49;24.50;84.80
4425;DHT22;2225;53.568;13.266;2023-06-26T00:48:16;24.50;85.00
4425;DHT22;2225;53.568;13.266;2023-06-26T00:50:43;24.40;85.00
4425;DHT22;2225;53.568;13.266;2023-06-26T00:53:11;24.40;85.10
4425;DHT22;2225;53.568;13.266;2023-06-26T00:55:38;24.40;85.30
4425;DHT22;2225;53.568;13.266;2023-06-26T00:58:05;24.40;85.20
4425;DHT22;2225;53.568;13.266;2023-06-26T01:00:32;24.40;85.20
4425;DHT22;2225;53.568;13.266;2023-06-26T01:02:59;24.40;85.30
4425;DHT22;2225;53.568;13.266;2023-06-26T01:05:27;24.40;85.30
4425;DHT22;2225;53.568;13.266;2023-06-26T01:07:56;24.40;85.50
4425;DHT22;2225;53.568;13.266;2023-06-26T01:10:24;24.40;85.30
4425;DHT22;2225;53.568;13.266;2023-06-26T01:12:54;24.30;85.30
4425;DHT22;2225;53.568;13.266;2023-06-26T01:15:21;24.30;85.20
4425;DHT22;2225;53.568;13.266;2023-06-26T01:17:51;24.30;85.10
4425;DHT22;2225;53.568;13.266;2023-06-26T01:20:19;24.30;85.20
4425;DHT22;2225;53.568;13.266;2023-06-26T01:23:06;24.30;85.40
4425;DHT22;2225;53.568;13.266;2023-06-26T01:28:40;24.30;85.80
4425;DHT22;2225;53.568;13.266;2023-06-26T01:31:10;24.30;85.60
4425;DHT22;2225;53.568;13.266;2023-06-26T01:33:38;24.30;85.60
4425;DHT22;2225;53.568;13.266;2023-06-26T01:36:07;24.30;85.50
4425;DHT22;2225;53.568;13.266;2023-06-26T01:38:35;24.30;85.60
4425;DHT22;2225;53.568;13.266;2023-06-26T01:41:03;24.30;85.80
4425;DHT22;2225;53.568;13.266;2023-06-26T01:43:58;24.30;85.80
4425;DHT22;2225;53.568;13.266;2023-06-26T01:46:57;24.30;85.90
4425;DHT22;2225;53.568;13.266;2023-06-26T01:49:49;24.30;86.20
4425;DHT22;2225;53.568;13.266;2023-06-26T01:52:42;24.30;86.10
4425;DHT22;2225;53.568;13.266;2023-06-26T01:55:20;24.30;86.10
4425;DHT22;2225;53.568;13.266;2023-06-26T01:57:52;24.30;85.80
4425;DHT22;2225;53.568;13.266;2023-06-26T02:00:21;24.30;85.70
4425;DHT22;2225;53.568;13.266;2023-06-26T02:02:49;24.30;85.70
4425;DHT22;2225;53.568;13.266;2023-06-26T02:05:16;24.30;85.60
4425;DHT22;2225;53.568;13.266;2023-06-26T02:07:43;24.30;85.70
4425;DHT22;2225;53.568;13.266;2023-06-26T02:10:11;24.30;86.00
4425;DHT22;2225;53.568;13.266;2023-06-26T02:12:38;24.40;85.90
4425;DHT22;2225;53.568;13.266;2023-06-26T02:15:05;24.40;85.80
4425;DHT22;2225;53.568;13.266;2023-06-26T02:17:33;24.40;85.90
4425;DHT22;2225;53.568;13.266;2023-06-26T02:20:00;24.40;85.90
4425;DHT22;2225;53.568;13.266;2023-06-26T02:22:27;24.40;85.80
4425;DHT22;2225;53.568;13.266;2023-06-26T02:24:55;24.40;85.70
4425;DHT22;2225;53.568;13.266;2023-06-26T02:27:22;24.40;85.60
4425;DHT22;2225;53.568;13.266;2023-06-26T02:29:49;24.40;85.70
4425;DHT22;2225;53.568;13.266;2023-06-26T02:32:16;24.50;85.70
4425;DHT22;2225;53.568;13.266;2023-06-26T02:34:43;24.50;85.90
4425;DHT22;2225;53.568;13.266;2023-06-26T02:37:10;24.40;86.00
4425;DHT22;2225;53.568;13.266;2023-06-26T02:39:38;24.50;85.90
4425;DHT22;2225;53.568;13.266;2023-06-26T02:42:07;24.50;85.80
4425;DHT22;2225;53.568;13.266;2023-06-26T02:44:34;24.50;86.00
4425;DHT22;2225;53.568;13.266;2023-06-26T02:47:02;24.50;86.00
4425;DHT22;2225;53.568;13.266;2023-06-26T02:49:29;24.50;85.80
4425;DHT22;2225;53.568;13.266;2023-06-26T02:51:56;24.50;85.70
4425;DHT22;2225;53.568;13.266;2023-06-26T02:54:26;24.50;85.50
4425;DHT22;2225;53.568;13.266;2023-06-26T02:56:59;24.60;85.50
4425;DHT22;2225;53.568;13.266;2023-06-26T02:59:28;24.60;85.40
4425;DHT22;2225;53.568;13.266;2023-06-26T03:01:56;24.60;85.70
4425;DHT22;2225;53.568;13.266;2023-06-26T03:04:30;24.60;85.60
4425;DHT22;2225;53.568;13.266;2023-06-26T03:06:57;24.60;85.60
4425;DHT22;2225;53.568;13.266;2023-06-26T03:09:24;24.70;85.80
4425;DHT22;2225;53.568;13.266;2023-06-26T03:11:51;24.70;85.60
4425;DHT22;2225;53.568;13.266;2023-06-26T03:14:20;24.70;85.50
4425;DHT22;2225;53.568;13.266;2023-06-26T03:16:47;24.80;85.40
4425;DHT22;2225;53.568;13.266;2023-06-26T03:19:15;24.80;85.40
4425;DHT22;2225;53.568;13.266;2023-06-26T03:22:05;24.80;85.30
4425;DHT22;2225;53.568;13.266;2023-06-26T03:24:32;24.80;85.20
4425;DHT22;2225;53.568;13.266;2023-06-26T03:27:00;24.90;85.30
4425;DHT22;2225;53.568;13.266;2023-06-26T03:29:27;24.80;85.20
4425;DHT22;2225;53.568;13.266;2023-06-26T03:31:56;24.90;85.30
4425;DHT22;2225;53.568;13.266;2023-06-26T03:34:23;24.90;85.50
4425;DHT22;2225;53.568;13.266;2023-06-26T03:36:50;24.90;85.60
4425;DHT22;2225;53.568;13.266;2023-06-26T03:39:17;24.90;85.50
4425;DHT22;2225;53.568;13.266;2023-06-26T03:41:44;25.00;85.60
4425;DHT22;2225;53.568;13.266;2023-06-26T03:44:11;24.90;85.60
4425;DHT22;2225;53.568;13.266;2023-06-26T03:46:46;25.00;85.60
4425;DHT22;2225;53.568;13.266;2023-06-26T03:49:13;25.00;85.60
4425;DHT22;2225;53.568;13.266;2023-06-26T03:51:42;25.00;85.50
4425;DHT22;2225;53.568;13.266;2023-06-26T03:54:09;25.10;85.40
4425;DHT22;2225;53.568;13.266;2023-06-26T03:56:36;25.10;85.40
4425;DHT22;2225;53.568;13.266;2023-06-26T03:59:04;25.10;85.30
4425;DHT22;2225;53.568;13.266;2023-06-26T04:01:31;25.20;85.50
4425;DHT22;2225;53.568;13.266;2023-06-26T04:04:00;25.20;85.50
4425;DHT22;2225;53.568;13.266;2023-06-26T04:06:27;25.20;85.60
4425;DHT22;2225;53.568;13.266;2023-06-26T04:08:55;25.20;85.60
4425;DHT22;2225;53.568;13.266;2023-06-26T04:11:22;25.20;85.40
4425;DHT22;2225;53.568;13.266;2023-06-26T04:13:49;25.20;86.40
4425;DHT22;2225;53.568;13.266;2023-06-26T04:16:16;25.30;85.50
4425;DHT22;2225;53.568;13.266;2023-06-26T04:18:43;25.30;85.50
4425;DHT22;2225;53.568;13.266;2023-06-26T04:21:11;25.30;85.50
4425;DHT22;2225;53.568;13.266;2023-06-26T04:23:40;25.40;85.70
4425;DHT22;2225;53.568;13.266;2023-06-26T04:26:07;25.40;85.70
4425;DHT22;2225;53.568;13.266;2023-06-26T04:28:35;25.50;85.60
4425;DHT22;2225;53.568;13.266;2023-06-26T04:31:02;25.50;85.50
4425;DHT22;2225;53.568;13.266;2023-06-26T04:33:32;25.60;85.40
4425;DHT22;2225;53.568;13.266;2023-06-26T04:35:59;25.70;85.30
4425;DHT22;2225;53.568;13.266;2023-06-26T04:38:33;25.70;85.00
4425;DHT22;2225;53.568;13.266;2023-06-26T04:41:01;25.70;84.90
4425;DHT22;2225;53.568;13.266;2023-06-26T04:43:28;25.80;84.70
4425;DHT22;2225;53.568;13.266;2023-06-26T04:45:56;25.90;84.80
4425;DHT22;2225;53.568;13.266;2023-06-26T04:48:23;26.00;84.80
4425;DHT22;2225;53.568;13.266;2023-06-26T04:50:50;26.00;84.50
4425;DHT22;2225;53.568;13.266;2023-06-26T04:53:21;26.10;84.40
4425;DHT22;2225;53.568;13.266;2023-06-26T04:55:50;26.20;84.30
4425;DHT22;2225;53.568;13.266;2023-06-26T04:58:18;26.30;84.20
4425;DHT22;2225;53.568;13.266;2023-06-26T05:00:45;26.40;84.10
4425;DHT22;2225;53.568;13.266;2023-06-26T05:03:14;26.40;84.00
4425;DHT22;2225;53.568;13.266;2023-06-26T05:05:43;26.50;84.10
4425;DHT22;2225;53.568;13.266;2023-06-26T05:08:17;26.50;83.80
4425;DHT22;2225;53.568;13.266;2023-06-26T05:10:50;26.60;83.80
4425;DHT22;2225;53.568;13.266;2023-06-26T05:13:19;26.60;83.60
4425;DHT22;2225;53.568;13.266;2023-06-26T05:15:46;26.70;83.70
4425;DHT22;2225;53.568;13.266;2023-06-26T05:18:13;26.70;83.70
4425;DHT22;2225;53.568;13.266;2023-06-26T05:20:41;26.70;83.70
4425;DHT22;2225;53.568;13.266;2023-06-26T05:23:13;26.70;83.70
4425;DHT22;2225;53.568;13.266;2023-06-26T05:25:40;26.70;83.70
4425;DHT22;2225;53.568;13.266;2023-06-26T05:28:08;26.70;83.60
4425;DHT22;2225;53.568;13.266;2023-06-26T05:30:37;26.70;83.70
4425;DHT22;2225;53.568;13.266;2023-06-26T05:33:05;26.70;83.60
4425;DHT22;2225;53.568;13.266;2023-06-26T05:35:34;26.60;83.50
4425;DHT22;2225;53.568;13.266;2023-06-26T05:38:03;26.60;83.10
4425;DHT22;2225;53.568;13.266;2023-06-26T05:40:30;26.60;82.50
4425;DHT22;2225;53.568;13.266;2023-06-26T05:42:57;26.60;82.50
4425;DHT22;2225;53.568;13.266;2023-06-26T05:45:24;26.60;82.30
4425;DHT22;2225;53.568;13.266;2023-06-26T05:47:51;26.70;82.30
4425;DHT22;2225;53.568;13.266;2023-06-26T05:50:18;26.70;82.30
4425;DHT22;2225;53.568;13.266;2023-06-26T05:52:46;26.70;82.60
4425;DHT22;2225;53.568;13.266;2023-06-26T05:55:14;26.70;82.70
4425;DHT22;2225;53.568;13.266;2023-06-26T05:57:41;26.80;83.10
4425;DHT22;2225;53.568;13.266;2023-06-26T06:00:09;26.80;83.10
4425;DHT22;2225;53.568;13.266;2023-06-26T06:02:42;26.80;82.90
4425;DHT22;2225;53.568;13.266;2023-06-26T06:05:10;26.80;83.00
4425;DHT22;2225;53.568;13.266;2023-06-26T06:07:37;26.90;82.90
4425;DHT22;2225;53.568;13.266;2023-06-26T06:10:04;27.00;82.70
4425;DHT22;2225;53.568;13.266;2023-06-26T06:12:31;27.00;82.60
4425;DHT22;2225;53.568;13.266;2023-06-26T06:14:58;27.10;82.70
4425;DHT22;2225;53.568;13.266;2023-06-26T06:17:25;27.10;82.30
4425;DHT22;2225;53.568;13.266;2023-06-26T06:19:52;27.20;82.50
4425;DHT22;2225;53.568;13.266;2023-06-26T06:22:19;27.30;82.80
4425;DHT22;2225;53.568;13.266;2023-06-26T06:24:48;27.30;82.60
4425;DHT22;2225;53.568;13.266;2023-06-26T06:27:15;27.30;82.60
4425;DHT22;2225;53.568;13.266;2023-06-26T06:29:42;27.40;82.40
4425;DHT22;2225;53.568;13.266;2023-06-26T06:32:09;27.50;82.40
4425;DHT22;2225;53.568;13.266;2023-06-26T06:34:36;27.60;82.20
4425;DHT22;2225;53.568;13.266;2023-06-26T06:37:03;27.60;81.70
4425;DHT22;2225;53.568;13.266;2023-06-26T06:39:30;27.70;81.70
4425;DHT22;2225;53.568;13.266;2023-06-26T06:41:57;27.80;81.60
4425;DHT22;2225;53.568;13.266;2023-06-26T06:44:24;27.80;81.40
4425;DHT22;2225;53.568;13.266;2023-06-26T06:46:51;27.90;81.30
4425;DHT22;2225;53.568;13.266;2023-06-26T06:49:18;28.00;81.10
4425;DHT22;2225;53.568;13.266;2023-06-26T06:51:45;28.10;81.10
4425;DHT22;2225;53.568;13.266;2023-06-26T06:54:12;28.10;80.90
4425;DHT22;2225;53.568;13.266;2023-06-26T06:56:39;28.20;80.60
4425;DHT22;2225;53.568;13.266;2023-06-26T06:59:06;28.20;80.90
4425;DHT22;2225;53.568;13.266;2023-06-26T07:01:33;28.30;81.10
4425;DHT22;2225;53.568;13.266;2023-06-26T07:04:00;28.40;81.30
4425;DHT22;2225;53.568;13.266;2023-06-26T07:06:27;28.40;80.90
4425;DHT22;2225;53.568;13.266;2023-06-26T07:08:54;28.40;81.00
4425;DHT22;2225;53.568;13.266;2023-06-26T07:11:21;28.50;80.90
4425;DHT22;2225;53.568;13.266;2023-06-26T07:13:48;28.50;80.90
4425;DHT22;2225;53.568;13.266;2023-06-26T07:16:15;28.50;81.10
4425;DHT22;2225;53.568;13.266;2023-06-26T07:18:42;28.70;81.50
4425;DHT22;2225;53.568;13.266;2023-06-26T07:21:10;28.70;80.90
4425;DHT22;2225;53.568;13.266;2023-06-26T07:23:37;28.80;79.10
4425;DHT22;2225;53.568;13.266;2023-06-26T07:26:04;28.90;78.40
4425;DHT22;2225;53.568;13.266;2023-06-26T07:28:31;29.00;77.80
4425;DHT22;2225;53.568;13.266;2023-06-26T07:30:58;29.10;77.30
4425;DHT22;2225;53.568;13.266;2023-06-26T07:33:25;29.20;77.30
4425;DHT22;2225;53.568;13.266;2023-06-26T07:35:52;29.30;77.80
4425;DHT22;2225;53.568;13.266;2023-06-26T07:38:19;29.40;76.80
4425;DHT22;2225;53.568;13.266;2023-06-26T07:40:46;29.50;76.40
4425;DHT22;2225;53.568;13.266;2023-06-26T07:43:12;29.60;75.90
4425;DHT22;2225;53.568;13.266;2023-06-26T07:45:39;29.70;75.80
4425;DHT22;2225;53.568;13.266;2023-06-26T07:48:06;29.80;75.80
4425;DHT22;2225;53.568;13.266;2023-06-26T07:50:35;29.90;73.20
4425;DHT22;2225;53.568;13.266;2023-06-26T07:53:03;30.10;71.70
4425;DHT22;2225;53.568;13.266;2023-06-26T07:55:31;30.20;71.50
4425;DHT22;2225;53.568;13.266;2023-06-26T07:57:59;30.30;71.10
4425;DHT22;2225;53.568;13.266;2023-06-26T08:00:26;30.40;69.30
4425;DHT22;2225;53.568;13.266;2023-06-26T08:02:53;30.60;69.40
4425;DHT22;2225;53.568;13.266;2023-06-26T08:05:21;30.70;68.80
4425;DHT22;2225;53.568;13.266;2023-06-26T08:07:48;30.80;68.10
4425;DHT22;2225;53.568;13.266;2023-06-26T08:10:15;30.90;68.50
4425;DHT22;2225;53.568;13.266;2023-06-26T08:12:42;31.00;66.70
4425;DHT22;2225;53.568;13.266;2023-06-26T08:15:11;31.10;67.50
4425;DHT22;2225;53.568;13.266;2023-06-26T08:17:38;31.20;68.40
4425;DHT22;2225;53.568;13.266;2023-06-26T08:20:06;31.20;66.60
4425;DHT22;2225;53.568;13.266;2023-06-26T08:22:35;31.40;66.70
4425;DHT22;2225;53.568;13.266;2023-06-26T08:25:03;31.40;66.70
4425;DHT22;2225;53.568;13.266;2023-06-26T08:27:32;31.60;65.90
4425;DHT22;2225;53.568;13.266;2023-06-26T08:29:59;31.70;64.90
4425;DHT22;2225;53.568;13.266;2023-06-26T08:32:26;31.80;64.30
4425;DHT22;2225;53.568;13.266;2023-06-26T08:34:53;31.90;64.20
4425;DHT22;2225;53.568;13.266;2023-06-26T08:37:20;32.00;63.90
4425;DHT22;2225;53.568;13.266;2023-06-26T08:39:48;32.10;64.20
4425;DHT22;2225;53.568;13.266;2023-06-26T08:42:15;32.20;63.10
4425;DHT22;2225;53.568;13.266;2023-06-26T08:44:42;32.30;61.70
4425;DHT22;2225;53.568;13.266;2023-06-26T08:47:26;32.40;60.50
4425;DHT22;2225;53.568;13.266;2023-06-26T08:50:07;32.40;60.80
4425;DHT22;2225;53.568;13.266;2023-06-26T08:52:53;32.40;60.80
4425;DHT22;2225;53.568;13.266;2023-06-26T08:55:26;32.50;59.20
4425;DHT22;2225;53.568;13.266;2023-06-26T08:57:54;32.50;60.10
4425;DHT22;2225;53.568;13.266;2023-06-26T09:00:21;32.60;59.30
4425;DHT22;2225;53.568;13.266;2023-06-26T09:02:49;32.60;58.70
4425;DHT22;2225;53.568;13.266;2023-06-26T09:05:16;32.60;58.40
4425;DHT22;2225;53.568;13.266;2023-06-26T09:07:43;32.60;58.70
4425;DHT22;2225;53.568;13.266;2023-06-26T09:10:10;32.60;58.10
4425;DHT22;2225;53.568;13.266;2023-06-26T09:12:37;32.60;58.30
4425;DHT22;2225;53.568;13.266;2023-06-26T09:15:06;32.70;58.40
4425;DHT22;2225;53.568;13.266;2023-06-26T09:17:38;32.80;58.80
4425;DHT22;2225;53.568;13.266;2023-06-26T09:20:07;32.80;57.30
4425;DHT22;2225;53.568;13.266;2023-06-26T09:22:39;32.90;56.70
4425;DHT22;2225;53.568;13.266;2023-06-26T09:25:08;32.90;56.40
4425;DHT22;2225;53.568;13.266;2023-06-26T09:27:36;32.90;56.80
4425;DHT22;2225;53.568;13.266;2023-06-26T09:30:06;32.90;56.20
4425;DHT22;2225;53.568;13.266;2023-06-26T09:32:34;33.00;56.50
4425;DHT22;2225;53.568;13.266;2023-06-26T09:35:03;33.00;56.10
4425;DHT22;2225;53.568;13.266;2023-06-26T09:37:30;33.00;55.80
4425;DHT22;2225;53.568;13.266;2023-06-26T09:39:57;33.00;55.90
4425;DHT22;2225;53.568;13.266;2023-06-26T09:42:24;33.10;55.80
4425;DHT22;2225;53.568;13.266;2023-06-26T09:44:51;33.10;55.30
4425;DHT22;2225;53.568;13.266;2023-06-26T09:47:19;33.20;55.40
4425;DHT22;2225;53.568;13.266;2023-06-26T09:49:48;33.20;55.20
4425;DHT22;2225;53.568;13.266;2023-06-26T09:52:17;33.30;55.30
4425;DHT22;2225;53.568;13.266;2023-06-26T09:54:45;33.30;56.20
4425;DHT22;2225;53.568;13.266;2023-06-26T09:57:16;33.30;54.20
4425;DHT22;2225;53.568;13.266;2023-06-26T09:59:44;33.40;54.40
4425;DHT22;2225;53.568;13.266;2023-06-26T10:02:14;33.40;54.50
4425;DHT22;2225;53.568;13.266;2023-06-26T10:04:41;33.40;54.00
4425;DHT22;2225;53.568;13.266;2023-06-26T10:07:11;33.40;54.10
4425;DHT22;2225;53.568;13.266;2023-06-26T10:09:41;33.40;53.90
4425;DHT22;2225;53.568;13.266;2023-06-26T10:12:20;33.50;54.50
4425;DHT22;2225;53.568;13.266;2023-06-26T10:14:56;33.50;53.50
4425;DHT22;2225;53.568;13.266;2023-06-26T10:17:27;33.60;53.80
4425;DHT22;2225;53.568;13.266;2023-06-26T10:19:56;33.70;53.60
4425;DHT22;2225;53.568;13.266;2023-06-26T10:22:28;33.80;53.40
4425;DHT22;2225;53.568;13.266;2023-06-26T10:24:58;33.80;53.60
4425;DHT22;2225;53.568;13.266;2023-06-26T10:27:29;33.80;53.50
4425;DHT22;2225;53.568;13.266;2023-06-26T10:30:04;33.90;53.40
4425;DHT22;2225;53.568;13.266;2023-06-26T10:32:32;34.00;52.80
4425;DHT22;2225;53.568;13.266;2023-06-26T10:35:00;34.00;52.40
4425;DHT22;2225;53.568;13.266;2023-06-26T10:37:46;34.10;52.60
4425;DHT22;2225;53.568;13.266;2023-06-26T10:40:25;34.20;52.50
4425;DHT22;2225;53.568;13.266;2023-06-26T10:43:06;34.20;51.80
4425;DHT22;2225;53.568;13.266;2023-06-26T10:45:36;34.20;52.30
4425;DHT22;2225;53.568;13.266;2023-06-26T10:48:04;34.20;52.50
4425;DHT22;2225;53.568;13.266;2023-06-26T10:50:32;34.20;52.40
4425;DHT22;2225;53.568;13.266;2023-06-26T10:53:14;34.20;52.10
4425;DHT22;2225;53.568;13.266;2023-06-26T10:55:59;34.30;52.00
4425;DHT22;2225;53.568;13.266;2023-06-26T11:03:46;34.30;51.40
4425;DHT22;2225;53.568;13.266;2023-06-26T11:06:20;34.40;51.90
4425;DHT22;2225;53.568;13.266;2023-06-26T11:08:49;34.40;51.80
4425;DHT22;2225;53.568;13.266;2023-06-26T11:11:21;34.40;51.80
4425;DHT22;2225;53.568;13.266;2023-06-26T11:13:48;34.40;51.30
4425;DHT22;2225;53.568;13.266;2023-06-26T11:16:15;34.50;51.20
4425;DHT22;2225;53.568;13.266;2023-06-26T11:18:42;34.50;51.00
4425;DHT22;2225;53.568;13.266;2023-06-26T11:21:12;34.60;51.00
4425;DHT22;2225;53.568;13.266;2023-06-26T11:23:44;34.60;50.40
4425;DHT22;2225;53.568;13.266;2023-06-26T11:26:20;34.60;50.50
4425;DHT22;2225;53.568;13.266;2023-06-26T11:28:56;34.60;51.10
4425;DHT22;2225;53.568;13.266;2023-06-26T11:31:27;34.70;50.90
4425;DHT22;2225;53.568;13.266;2023-06-26T11:34:00;34.80;50.90
4425;DHT22;2225;53.568;13.266;2023-06-26T11:36:30;34.80;51.60
4425;DHT22;2225;53.568;13.266;2023-06-26T11:39:02;34.90;50.80
4425;DHT22;2225;53.568;13.266;2023-06-26T11:41:31;35.00;50.50
4425;DHT22;2225;53.568;13.266;2023-06-26T11:44:02;35.10;50.60
4425;DHT22;2225;53.568;13.266;2023-06-26T11:46:35;35.10;50.60
4425;DHT22;2225;53.568;13.266;2023-06-26T11:49:07;35.20;49.60
4425;DHT22;2225;53.568;13.266;2023-06-26T11:51:35;35.20;49.80
4425;DHT22;2225;53.568;13.266;2023-06-26T11:54:03;35.20;49.40
4425;DHT22;2225;53.568;13.266;2023-06-26T11:56:31;35.10;49.00
4425;DHT22;2225;53.568;13.266;2023-06-26T11:59:11;35.10;49.20
4425;DHT22;2225;53.568;13.266;2023-06-26T12:01:41;35.10;49.70
4425;DHT22;2225;53.568;13.266;2023-06-26T12:04:13;35.00;49.60
4425;DHT22;2225;53.568;13.266;2023-06-26T12:06:46;35.10;49.40
4425;DHT22;2225;53.568;13.266;2023-06-26T12:09:19;35.10;49.70
4425;DHT22;2225;53.568;13.266;2023-06-26T12:11:48;35.20;49.90
4425;DHT22;2225;53.568;13.266;2023-06-26T12:14:16;35.20;49.60
4425;DHT22;2225;53.568;13.266;2023-06-26T12:16:44;35.20;49.30
4425;DHT22;2225;53.568;13.266;2023-06-26T12:19:11;35.30;49.50
4425;DHT22;2225;53.568;13.266;2023-06-26T12:24:09;35.40;49.50
4425;DHT22;2225;53.568;13.266;2023-06-26T12:26:53;35.50;49.10
4425;DHT22;2225;53.568;13.266;2023-06-26T12:29:32;35.50;48.70
4425;DHT22;2225;53.568;13.266;2023-06-26T12:32:00;35.50;48.70
4425;DHT22;2225;53.568;13.266;2023-06-26T12:34:30;35.50;48.20
4425;DHT22;2225;53.568;13.266;2023-06-26T12:39:55;35.60;48.10
4425;DHT22;2225;53.568;13.266;2023-06-26T12:42:27;35.60;48.20
4425;DHT22;2225;53.568;13.266;2023-06-26T12:44:55;35.60;48.70
4425;DHT22;2225;53.568;13.266;2023-06-26T12:47:28;35.70;49.50
4425;DHT22;2225;53.568;13.266;2023-06-26T12:49:57;35.80;48.50
4425;DHT22;2225;53.568;13.266;2023-06-26T12:52:24;35.90;48.20
4425;DHT22;2225;53.568;13.266;2023-06-26T12:54:53;35.90;47.30
4425;DHT22;2225;53.568;13.266;2023-06-26T12:57:21;35.90;47.20
4425;DHT22;2225;53.568;13.266;2023-06-26T12:59:48;35.90;47.50
4425;DHT22;2225;53.568;13.266;2023-06-26T13:02:15;35.80;47.20
4425;DHT22;2225;53.568;13.266;2023-06-26T13:04:42;35.70;47.40
4425;DHT22;2225;53.568;13.266;2023-06-26T13:07:11;35.50;47.80
4425;DHT22;2225;53.568;13.266;2023-06-26T13:09:38;35.50;48.10
4425;DHT22;2225;53.568;13.266;2023-06-26T13:12:07;35.50;48.30
4425;DHT22;2225;53.568;13.266;2023-06-26T13:14:35;35.40;48.40
4425;DHT22;2225;53.568;13.266;2023-06-26T13:17:02;35.30;48.30
4425;DHT22;2225;53.568;13.266;2023-06-26T13:19:31;35.20;48.00
4425;DHT22;2225;53.568;13.266;2023-06-26T13:21:58;35.10;48.20
4425;DHT22;2225;53.568;13.266;2023-06-26T13:24:26;35.00;48.40
4425;DHT22;2225;53.568;13.266;2023-06-26T13:26:53;35.00;48.60
4425;DHT22;2225;53.568;13.266;2023-06-26T13:29:20;34.90;48.90
4425;DHT22;2225;53.568;13.266;2023-06-26T13:31:47;34.80;48.90
4425;DHT22;2225;53.568;13.266;2023-06-26T13:34:24;34.70;49.00
4425;DHT22;2225;53.568;13.266;2023-06-26T13:36:54;34.70;49.00
4425;DHT22;2225;53.568;13.266;2023-06-26T13:39:21;34.60;49.10
4425;DHT22;2225;53.568;13.266;2023-06-26T13:41:48;34.50;49.90
4425;DHT22;2225;53.568;13.266;2023-06-26T13:44:15;34.40;52.50
4425;DHT22;2225;53.568;13.266;2023-06-26T13:47:02;34.10;53.30
4425;DHT22;2225;53.568;13.266;2023-06-26T13:49:29;33.60;55.20
4425;DHT22;2225;53.568;13.266;2023-06-26T13:51:56;33.00;58.10
4425;DHT22;2225;53.568;13.266;2023-06-26T13:54:24;32.30;60.40
4425;DHT22;2225;53.568;13.266;2023-06-26T13:56:51;31.60;63.50
4425;DHT22;2225;53.568;13.266;2023-06-26T13:59:18;31.00;66.60
4425;DHT22;2225;53.568;13.266;2023-06-26T14:01:48;30.40;68.20
4425;DHT22;2225;53.568;13.266;2023-06-26T14:04:15;29.90;70.70
4425;DHT22;2225;53.568;13.266;2023-06-26T14:06:41;29.30;74.10
4425;DHT22;2225;53.568;13.266;2023-06-26T14:09:08;28.80;77.20
4425;DHT22;2225;53.568;13.266;2023-06-26T14:11:35;28.30;77.90
4425;DHT22;2225;53.568;13.266;2023-06-26T14:14:03;28.00;79.60
4425;DHT22;2225;53.568;13.266;2023-06-26T14:16:30;27.60;80.60
4425;DHT22;2225;53.568;13.266;2023-06-26T14:18:57;27.30;81.90
4425;DHT22;2225;53.568;13.266;2023-06-26T14:21:24;27.00;82.10
4425;DHT22;2225;53.568;13.266;2023-06-26T14:23:51;26.80;84.00
4425;DHT22;2225;53.568;13.266;2023-06-26T14:26:18;26.60;84.80
4425;DHT22;2225;53.568;13.266;2023-06-26T14:28:45;26.50;85.50
4425;DHT22;2225;53.568;13.266;2023-06-26T14:31:12;26.30;86.30
4425;DHT22;2225;53.568;13.266;2023-06-26T14:33:39;26.30;86.70
4425;DHT22;2225;53.568;13.266;2023-06-26T14:36:06;26.20;86.80
4425;DHT22;2225;53.568;13.266;2023-06-26T14:38:33;26.20;88.10
4425;DHT22;2225;53.568;13.266;2023-06-26T14:41:00;26.20;87.60
4425;DHT22;2225;53.568;13.266;2023-06-26T14:43:28;26.20;88.10
4425;DHT22;2225;53.568;13.266;2023-06-26T14:45:55;26.20;88.10
4425;DHT22;2225;53.568;13.266;2023-06-26T14:48:22;26.20;89.00
4425;DHT22;2225;53.568;13.266;2023-06-26T14:50:49;26.30;89.60
4425;DHT22;2225;53.568;13.266;2023-06-26T14:53:17;26.30;89.70
4425;DHT22;2225;53.568;13.266;2023-06-26T14:55:44;26.30;89.90
4425;DHT22;2225;53.568;13.266;2023-06-26T14:58:11;26.40;89.70
4425;DHT22;2225;53.568;13.266;2023-06-26T15:00:38;26.50;89.80
4425;DHT22;2225;53.568;13.266;2023-06-26T15:03:05;26.60;89.50
4425;DHT22;2225;53.568;13.266;2023-06-26T15:05:32;26.60;89.40
4425;DHT22;2225;53.568;13.266;2023-06-26T15:07:59;26.70;89.60
4425;DHT22;2225;53.568;13.266;2023-06-26T15:10:26;26.70;90.00
4425;DHT22;2225;53.568;13.266;2023-06-26T15:12:55;26.70;90.10
4425;DHT22;2225;53.568;13.266;2023-06-26T15:15:24;26.70;90.20
4425;DHT22;2225;53.568;13.266;2023-06-26T15:17:51;26.70;90.30
4425;DHT22;2225;53.568;13.266;2023-06-26T15:20:18;26.70;90.60
4425;DHT22;2225;53.568;13.266;2023-06-26T15:22:45;26.70;90.30
4425;DHT22;2225;53.568;13.266;2023-06-26T15:25:11;26.70;90.50
4425;DHT22;2225;53.568;13.266;2023-06-26T15:27:38;26.70;90.30
4425;DHT22;2225;53.568;13.266;2023-06-26T15:30:06;26.70;90.70
4425;DHT22;2225;53.568;13.266;2023-06-26T15:32:33;26.70;90.70
4425;DHT22;2225;53.568;13.266;2023-06-26T15:35:00;26.80;90.80
4425;DHT22;2225;53.568;13.266;2023-06-26T15:37:27;26.80;90.80
4425;DHT22;2225;53.568;13.266;2023-06-26T15:39:54;26.80;91.00
4425;DHT22;2225;53.568;13.266;2023-06-26T15:42:26;26.80;90.80
4425;DHT22;2225;53.568;13.266;2023-06-26T15:44:53;26.80;90.50
4425;DHT22;2225;53.568;13.266;2023-06-26T15:47:20;26.80;90.50
4425;DHT22;2225;53.568;13.266;2023-06-26T15:49:47;26.80;90.70
4425;DHT22;2225;53.568;13.266;2023-06-26T15:52:14;26.80;90.40
4425;DHT22;2225;53.568;13.266;2023-06-26T15:54:41;26.80;90.30
4425;DHT22;2225;53.568;13.266;2023-06-26T15:57:08;26.70;90.20
4425;DHT22;2225;53.568;13.266;2023-06-26T15:59:35;26.70;90.30
4425;DHT22;2225;53.568;13.266;2023-06-26T16:02:02;26.60;90.40
4425;DHT22;2225;53.568;13.266;2023-06-26T16:04:29;26.60;90.40
4425;DHT22;2225;53.568;13.266;2023-06-26T16:06:58;26.50;90.40
4425;DHT22;2225;53.568;13.266;2023-06-26T16:09:25;26.50;90.60